Time;durP1;ratioP1;P1;durP2;ratioP2;P2;SDS_P1;SDS_P2;PMS_P1;PMS_P2;Temp;Humidity;BMP_temperature;BMP_pressure;BME280_temperature;BME280_humidity;BME280_pressure;Samples;Min_cycle;Max_cycle;Signal;HPM_P1;HPM_P2
2022/08/31 00:05:23;;;;;;;4.28;1.20;;;;;;;14.83;100.00;102613.44;5016716;28;20057;-92
2022/08/31 00:07:50;;;;;;;2.78;1.20;;;;;;;14.70;100.00;102610.28;5031229;28;20132;-92
2022/08/31 00:10:19;;;;;;;3.85;1.30;;;;;;;14.68;100.00;102604.13;5035317;28;20095;-92
2022/08/31 00:12:59;;;;;;;2.30;1.00;;;;;;;15.09;100.00;102636.53;5035406;28;20056;-93
2022/08/31 00:15:29;;;;;;;3.35;1.10;;;;;;;14.83;100.00;102592.34;5034958;28;20175;-92
2022/08/31 00:17:56;;;;;;;3.25;1.10;;;;;;;14.92;100.00;102634.31;5033598;28;20053;-93
2022/08/31 00:20:23;;;;;;;2.83;1.20;;;;;;;14.96;100.00;102620.13;5035284;28;20533;-93
2022/08/31 00:23:11;;;;;;;3.20;1.10;;;;;;;14.75;100.00;102611.00;5035213;28;20136;-92
2022/08/31 00:25:40;;;;;;;5.50;1.40;;;;;;;14.72;100.00;102624.28;5035316;28;20075;-93
2022/08/31 00:28:08;;;;;;;4.15;1.30;;;;;;;14.50;100.00;102589.63;5016948;28;20056;-92
2022/08/31 00:30:35;;;;;;;5.43;1.50;;;;;;;14.41;100.00;102591.59;5014785;28;20081;-92
2022/08/31 00:33:04;;;;;;;5.35;1.33;;;;;;;14.56;100.00;102613.22;5015111;28;20145;-92
2022/08/31 00:35:34;;;;;;;3.42;1.33;;;;;;;14.57;100.00;102622.81;5014637;28;20054;-92
2022/08/31 00:38:04;;;;;;;3.30;1.33;;;;;;;14.53;100.00;102615.91;5026060;28;20045;-92
2022/08/31 00:40:31;;;;;;;4.18;1.20;;;;;;;14.42;100.00;102587.19;5035201;28;20072;-92
2022/08/31 00:43:03;;;;;;;3.97;1.20;;;;;;;14.32;100.00;102580.41;5034622;28;20056;-92
2022/08/31 00:45:31;;;;;;;4.38;1.20;;;;;;;14.36;100.00;102587.31;5034674;28;20274;-92
2022/08/31 00:47:58;;;;;;;4.00;1.30;;;;;;;14.31;100.00;102569.00;5017418;28;20046;-92
2022/08/31 00:50:25;;;;;;;5.78;1.27;;;;;;;14.51;100.00;102604.53;5014650;28;20046;-91
2022/08/31 00:52:56;;;;;;;3.20;1.20;;;;;;;14.30;100.00;102553.22;5014566;28;20049;-92
2022/08/31 00:55:32;;;;;;;5.20;1.25;;;;;;;14.60;100.00;102610.47;5014585;28;20466;-91
2022/08/31 00:58:05;;;;;;;2.72;1.00;;;;;;;14.51;100.00;102580.81;5014209;28;20062;-91
2022/08/31 01:00:32;;;;;;;3.53;1.30;;;;;;;14.45;100.00;102571.31;5014475;28;20340;-91
2022/08/31 01:03:01;;;;;;;3.75;1.13;;;;;;;14.36;100.00;102550.41;5013556;28;20054;-91
2022/08/31 01:05:29;;;;;;;4.10;1.10;;;;;;;14.65;100.00;102596.34;5013766;28;20100;-92
2022/08/31 01:07:58;;;;;;;2.10;0.90;;;;;;;14.84;100.00;102615.16;5023528;28;20064;-92
2022/08/31 01:10:30;;;;;;;3.90;1.30;;;;;;;14.73;100.00;102583.81;5013691;28;20473;-92
2022/08/31 01:12:58;;;;;;;1.80;1.02;;;;;;;14.76;100.00;102583.72;5013791;28;20385;-92
2022/08/31 01:15:27;;;;;;;3.30;1.35;;;;;;;14.83;100.00;102621.38;5013649;28;20085;-92
2022/08/31 01:17:56;;;;;;;3.30;1.02;;;;;;;14.54;100.00;102581.59;5024499;28;20045;-92
2022/08/31 01:20:32;;;;;;;2.78;1.05;;;;;;;14.62;100.00;102586.72;5013295;28;20391;-92
2022/08/31 01:23:21;;;;;;;4.30;1.40;;;;;;;14.77;100.00;102622.41;5013303;28;20133;-92
2022/08/31 01:25:49;;;;;;;3.47;1.27;;;;;;;14.61;100.00;102593.75;5013529;28;20068;-92
2022/08/31 01:28:17;;;;;;;3.90;1.30;;;;;;;14.61;100.00;102590.28;5013649;28;20052;-92
2022/08/31 01:31:01;;;;;;;4.03;1.20;;;;;;;14.87;100.00;102620.38;5013601;28;20488;-92
2022/08/31 01:33:28;;;;;;;3.45;1.30;;;;;;;14.58;100.00;102612.28;5013508;28;20083;-93
2022/08/31 01:35:56;;;;;;;3.85;1.40;;;;;;;14.38;100.00;102570.59;5013214;28;20049;-93
2022/08/31 01:38:24;;;;;;;4.13;1.60;;;;;;;14.66;100.00;102590.13;5013523;28;20085;-92
2022/08/31 01:40:54;;;;;;;3.40;1.30;;;;;;;14.47;100.00;102580.03;5013035;28;20052;-93
2022/08/31 01:43:22;;;;;;;3.80;1.10;;;;;;;14.48;100.00;102580.88;5013321;28;20137;-92
2022/08/31 01:45:50;;;;;;;3.28;1.10;;;;;;;14.64;100.00;102615.69;5013233;28;20049;-92
2022/08/31 01:48:17;;;;;;;5.93;1.50;;;;;;;14.86;100.00;102613.38;5013701;28;20072;-93
2022/08/31 01:50:43;;;;;;;2.65;1.10;;;;;;;14.60;100.00;102588.53;5013429;28;20042;-93
2022/08/31 01:53:10;;;;;;;3.20;1.20;;;;;;;14.79;100.00;102608.25;5014086;28;20400;-93
2022/08/31 01:55:37;;;;;;;4.97;1.20;;;;;;;14.70;100.00;102592.66;5013239;28;20056;-93
2022/08/31 01:58:04;;;;;;;5.18;1.30;;;;;;;14.44;100.00;102570.41;5013323;28;20049;-93
2022/08/31 02:00:31;;;;;;;3.75;1.13;;;;;;;14.23;100.00;102547.22;5012911;28;20046;-93
2022/08/31 02:03:00;;;;;;;3.95;1.48;;;;;;;14.62;100.00;102607.81;5013435;28;20050;-93
2022/08/31 02:05:28;;;;;;;2.92;1.10;;;;;;;14.60;100.00;102591.16;5014180;28;20393;-93
2022/08/31 02:07:55;;;;;;;4.10;1.48;;;;;;;14.59;100.00;102606.13;5029800;28;20053;-94
2022/08/31 02:10:23;;;;;;;3.03;1.20;;;;;;;14.24;100.00;102543.69;5033543;28;20488;-94
2022/08/31 02:12:50;;;;;;;3.78;1.30;;;;;;;14.54;100.00;102581.59;5033521;28;20093;-93
2022/08/31 02:15:17;;;;;;;5.63;1.38;;;;;;;14.41;100.00;102578.41;5033386;28;20053;-92
2022/08/31 02:17:44;;;;;;;3.58;1.20;;;;;;;14.41;100.00;102559.09;5018181;28;20377;-92
2022/08/31 02:20:14;;;;;;;3.75;1.30;;;;;;;14.42;100.00;102537.97;5013514;28;20137;-93
2022/08/31 02:22:41;;;;;;;5.10;1.15;;;;;;;14.74;100.00;102612.78;5013766;28;20054;-92
2022/08/31 02:25:08;;;;;;;5.53;1.40;;;;;;;14.81;100.00;102602.94;5013458;28;20085;-92
2022/08/31 02:27:36;;;;;;;4.95;1.27;;;;;;;14.60;100.00;102589.38;5013885;28;20556;-93
2022/08/31 02:30:11;;;;;;;4.57;1.10;;;;;;;14.85;100.00;102611.63;5013617;28;20137;-92
2022/08/31 02:32:38;;;;;;;5.93;1.45;;;;;;;14.39;100.00;102553.84;5013766;28;20105;-92
2022/08/31 02:35:06;;;;;;;5.40;1.25;;;;;;;14.41;100.00;102585.44;5013546;28;20046;-93
2022/08/31 02:37:33;;;;;;;2.38;1.10;;;;;;;14.44;100.00;102580.97;5013535;28;20056;-92
2022/08/31 02:40:02;;;;;;;2.25;1.10;;;;;;;14.56;100.00;102610.56;5013476;28;20477;-93
2022/08/31 02:42:30;;;;;;;6.72;1.92;;;;;;;14.57;100.00;102601.75;5016750;28;20085;-92
2022/08/31 02:45:17;;;;;;;3.92;1.30;;;;;;;14.63;100.00;102601.63;5017837;28;20050;-93
2022/08/31 02:47:44;;;;;;;4.05;1.27;;;;;;;14.72;100.00;102603.19;5017344;28;20136;-93
2022/08/31 02:50:11;;;;;;;2.88;1.10;;;;;;;14.63;100.00;102598.16;5016787;28;20046;-92
2022/08/31 02:52:37;;;;;;;4.05;1.23;;;;;;;14.45;100.00;102573.94;5017080;28;20053;-92
2022/08/31 02:55:05;;;;;;;4.00;1.38;;;;;;;14.48;100.00;102554.53;5016834;28;20049;-92
2022/08/31 02:57:32;;;;;;;6.20;1.30;;;;;;;14.51;100.00;102565.88;5016515;28;20050;-92
2022/08/31 02:59:58;;;;;;;2.47;1.10;;;;;;;14.70;100.00;102600.56;5016858;28;20050;-92
2022/08/31 03:02:27;;;;;;;3.65;1.23;;;;;;;14.22;100.00;102534.97;5016983;28;20104;-92
2022/08/31 03:05:00;;;;;;;4.22;1.40;;;;;;;14.62;100.00;102602.53;5016766;28;20133;-92
2022/08/31 03:07:27;;;;;;;2.65;1.10;;;;;;;14.68;100.00;102605.03;5016613;28;20053;-93
2022/08/31 03:09:54;;;;;;;4.05;1.27;;;;;;;14.51;100.00;102581.69;5016821;28;20046;-93
2022/08/31 03:12:20;;;;;;;4.60;1.30;;;;;;;14.40;100.00;102567.91;5016689;28;20060;-93
2022/08/31 03:14:47;;;;;;;1.80;1.08;;;;;;;14.32;100.00;102557.53;5016565;28;20053;-93
2022/08/31 03:17:14;;;;;;;3.28;1.10;;;;;;;14.23;100.00;102534.06;5027584;28;20055;-92
2022/08/31 03:19:41;;;;;;;4.07;1.35;;;;;;;14.44;100.00;102556.38;5036922;28;20136;-92
2022/08/31 03:22:08;;;;;;;5.07;1.20;;;;;;;14.43;100.00;102566.06;5036402;28;20480;-93
2022/08/31 03:24:34;;;;;;;1.83;0.98;;;;;;;14.56;100.00;102581.56;5036365;28;20488;-92
2022/08/31 03:27:01;;;;;;;5.28;1.38;;;;;;;14.31;100.00;102560.25;5035914;28;20053;-93
2022/08/31 03:29:28;;;;;;;2.40;1.15;;;;;;;14.62;100.00;102594.63;5036198;28;20495;-92
2022/08/31 03:31:55;;;;;;;4.07;1.25;;;;;;;14.56;100.00;102598.25;5036137;28;20041;-93
2022/08/31 03:34:21;;;;;;;2.65;1.08;;;;;;;14.41;100.00;102551.19;5035850;28;20064;-92
2022/08/31 03:36:48;;;;;;;3.88;1.10;;;;;;;14.44;100.00;102544.06;5036535;28;20053;-92
2022/08/31 03:39:15;;;;;;;2.55;1.00;;;;;;;14.34;100.00;102526.78;5021267;28;20049;-92
2022/08/31 03:41:42;;;;;;;2.08;0.90;;;;;;;14.50;100.00;102558.00;5015883;28;20049;-93
2022/08/31 03:44:09;;;;;;;3.00;1.10;;;;;;;14.53;100.00;102553.50;5015822;28;20152;-92
2022/08/31 03:46:36;;;;;;;2.25;1.00;;;;;;;14.46;100.00;102545.81;5015376;28;20049;-92
2022/08/31 03:49:03;;;;;;;2.40;1.00;;;;;;;14.80;100.00;102572.19;5015963;28;20058;-92
2022/08/31 03:51:30;;;;;;;1.77;1.00;;;;;;;14.51;100.00;102538.66;5015942;28;20052;-92
2022/08/31 03:53:56;;;;;;;2.25;1.00;;;;;;;14.35;100.00;102546.94;5014264;28;20053;-92
2022/08/31 03:56:23;;;;;;;5.57;1.20;;;;;;;14.21;100.00;102520.06;5019640;28;20056;-92
2022/08/31 03:58:50;;;;;;;3.17;1.10;;;;;;;14.29;100.00;102551.47;5035551;28;20140;-92
2022/08/31 04:01:17;;;;;;;3.78;1.20;;;;;;;14.53;100.00;102577.22;5035461;28;20049;-92
2022/08/31 04:03:44;;;;;;;3.10;1.20;;;;;;;14.41;100.00;102567.88;5034914;28;20057;-92
2022/08/31 04:06:12;;;;;;;2.15;1.02;;;;;;;14.68;100.00;102586.56;5034834;28;20059;-92
2022/08/31 04:08:39;;;;;;;6.63;1.10;;;;;;;14.67;100.00;102574.28;5034591;28;20057;-92
2022/08/31 04:11:16;;;;;;;3.85;1.40;;;;;;;14.79;100.00;102595.06;5034350;28;20502;-92
2022/08/31 04:13:50;;;;;;;3.60;1.10;;;;;;;14.41;100.00;102549.44;5034904;28;20061;-92
2022/08/31 04:16:20;;;;;;;4.60;1.40;;;;;;;14.53;100.00;102561.41;5034129;28;20140;-92
2022/08/31 04:18:47;;;;;;;2.92;1.10;;;;;;;14.66;100.00;102582.22;5034583;28;20127;-92
2022/08/31 04:21:22;;;;;;;1.98;1.00;;;;;;;14.70;100.00;102586.53;5035693;28;20418;-92
2022/08/31 04:23:50;;;;;;;3.00;1.05;;;;;;;14.63;100.00;102575.28;5034463;28;20226;-92
2022/08/31 04:26:39;;;;;;;2.28;1.00;;;;;;;14.47;100.00;102576.53;5034659;28;20060;-93
2022/08/31 04:29:07;;;;;;;3.85;1.27;;;;;;;14.21;100.00;102549.03;5033950;28;20061;-92
2022/08/31 04:31:39;;;;;;;2.80;1.20;;;;;;;14.27;100.00;102559.44;5034627;28;20472;-92
2022/08/31 04:34:06;;;;;;;3.90;1.52;;;;;;;14.07;100.00;102556.41;5034652;28;20506;-92
2022/08/31 04:36:32;;;;;;;4.18;1.20;;;;;;;14.23;100.00;102537.53;5034300;28;20071;-92
2022/08/31 04:39:01;;;;;;;3.35;1.05;;;;;;;14.38;100.00;102594.28;5026774;28;20471;-92
2022/08/31 04:41:30;;;;;;;3.72;1.25;;;;;;;14.59;100.00;102594.72;5023267;28;20506;-93
2022/08/31 04:43:59;;;;;;;3.65;1.20;;;;;;;14.50;100.00;102579.97;5037010;28;20128;-95
2022/08/31 04:46:26;;;;;;;5.90;1.27;;;;;;;14.13;100.00;102558.88;5034286;28;20103;-94
2022/08/31 04:48:54;;;;;;;3.42;1.20;;;;;;;14.31;100.00;102569.00;5035148;28;20063;-95
2022/08/31 04:51:27;;;;;;;2.65;1.13;;;;;;;14.50;100.00;102585.25;5041487;28;20105;-95
2022/08/31 04:53:54;;;;;;;4.80;1.60;;;;;;;14.47;100.00;102590.56;5037992;28;20053;-95
2022/08/31 04:56:28;;;;;;;6.13;1.42;;;;;;;14.44;100.00;102599.41;5046202;28;20136;-96
2022/08/31 04:58:59;;;;;;;5.03;1.50;;;;;;;14.31;100.00;102578.69;5041387;28;20423;-95
2022/08/31 05:01:30;;;;;;;8.93;2.00;;;;;;;14.24;100.00;102593.75;5038921;28;20045;-95
2022/08/31 05:04:09;;;;;;;3.67;1.63;;;;;;;14.11;100.00;102566.84;5043250;28;20053;-95
2022/08/31 05:06:39;;;;;;;5.55;1.27;;;;;;;14.37;100.00;102599.59;5043755;28;20057;-94
2022/08/31 05:09:10;;;;;;;5.15;1.42;;;;;;;14.18;100.00;102591.25;5044607;28;20499;-94
2022/08/31 05:11:37;;;;;;;4.72;1.50;;;;;;;14.21;100.00;102593.81;5042187;28;20132;-94
2022/08/31 05:14:06;;;;;;;3.45;1.25;;;;;;;14.10;100.00;102566.88;5043002;28;20053;-94
2022/08/31 05:16:36;;;;;;;2.88;1.20;;;;;;;14.35;100.00;102586.47;5044041;28;20132;-94
2022/08/31 05:19:03;;;;;;;3.58;1.10;;;;;;;14.23;100.00;102565.66;5040365;28;20068;-94
2022/08/31 05:21:36;;;;;;;2.50;1.10;;;;;;;14.42;100.00;102600.34;5039335;28;20053;-92
2022/08/31 05:24:34;;;;;;;3.42;1.20;;;;;;;14.52;100.00;102600.97;5036809;28;20387;-94
2022/08/31 05:27:01;;;;;;;4.22;1.20;;;;;;;14.10;100.00;102562.47;5022914;28;20056;-94
2022/08/31 05:29:28;;;;;;;4.10;1.33;;;;;;;14.25;100.00;102592.84;5043926;28;20144;-93
2022/08/31 05:32:09;;;;;;;2.67;1.10;;;;;;;14.47;100.00;102606.38;5024972;28;20053;-89
2022/08/31 05:34:37;;;;;;;2.55;1.08;;;;;;;14.17;100.00;102565.84;5037231;28;20140;-91
2022/08/31 05:37:04;;;;;;;3.95;1.25;;;;;;;14.31;100.00;102579.53;5044154;28;20136;-90
2022/08/31 05:39:32;;;;;;;3.42;1.10;;;;;;;14.47;100.00;102598.47;5031754;28;20136;-90
2022/08/31 05:42:05;;;;;;;3.83;1.50;;;;;;;14.27;100.00;102579.63;5035961;28;20045;-92
2022/08/31 05:44:36;;;;;;;3.22;1.30;;;;;;;14.29;100.00;102588.38;5032173;28;20070;-91
2022/08/31 05:47:17;;;;;;;5.32;1.20;;;;;;;14.39;100.00;102587.25;5038017;28;20038;-92
2022/08/31 05:49:58;;;;;;;2.83;1.30;;;;;;;14.39;100.00;102585.47;5031902;28;20045;-92
2022/08/31 05:52:38;;;;;;;3.92;1.10;;;;;;;14.53;100.00;102608.00;5032684;28;20050;-93
2022/08/31 05:55:20;;;;;;;2.88;1.10;;;;;;;14.50;100.00;102610.72;5033206;28;20057;-92
2022/08/31 05:58:01;;;;;;;5.30;1.30;;;;;;;14.44;100.00;102601.19;5011093;28;20038;-91
2022/08/31 06:00:42;;;;;;;4.32;1.50;;;;;;;14.04;100.00;102583.66;5017737;28;20034;-92
2022/08/31 06:03:24;;;;;;;5.22;1.50;;;;;;;14.01;100.00;102581.97;5034448;28;20065;-91
2022/08/31 06:06:04;;;;;;;3.67;1.25;;;;;;;14.43;100.00;102604.75;5023409;28;20049;-91
2022/08/31 06:08:46;;;;;;;4.35;1.30;;;;;;;14.28;100.00;102581.38;5042959;28;20049;-91
2022/08/31 06:11:29;;;;;;;2.83;1.25;;;;;;;14.34;100.00;102618.09;5040247;28;20110;-93
2022/08/31 06:14:10;;;;;;;5.70;1.50;;;;;;;14.30;100.00;102609.41;5021068;28;20072;-91
2022/08/31 06:16:52;;;;;;;4.82;1.48;;;;;;;14.57;100.00;102623.72;5040373;28;20045;-86
2022/08/31 06:19:20;;;;;;;4.88;1.50;;;;;;;14.55;100.00;102622.88;5055747;28;20076;-89
2022/08/31 06:22:01;;;;;;;3.55;1.13;;;;;;;14.66;100.00;102622.66;5048644;28;20026;-91
2022/08/31 06:24:42;;;;;;;5.50;1.65;;;;;;;14.68;100.00;102617.31;5022841;28;20048;-92
2022/08/31 06:27:23;;;;;;;6.85;1.20;;;;;;;14.75;100.00;102627.69;5048763;28;20060;-92
2022/08/31 06:30:06;;;;;;;4.05;1.10;;;;;;;14.51;100.00;102592.22;5038341;28;20073;-91
2022/08/31 06:32:49;;;;;;;4.60;1.20;;;;;;;14.79;100.00;102629.34;5039834;28;20046;-91
2022/08/31 06:35:30;;;;;;;3.22;1.20;;;;;;;14.78;100.00;102610.91;5024194;28;20104;-92
2022/08/31 06:38:02;;;;;;;2.60;1.20;;;;;;;14.76;100.00;102610.09;5049537;28;20061;-93
2022/08/31 06:40:42;;;;;;;6.32;1.60;;;;;;;14.89;100.00;102613.28;5023544;28;20036;-92
2022/08/31 06:43:24;;;;;;;4.35;1.42;;;;;;;14.84;100.00;102612.53;5046631;28;20069;-90
2022/08/31 06:46:05;;;;;;;4.40;1.38;;;;;;;15.11;100.00;102640.84;5056481;28;20029;-92
2022/08/31 06:48:49;;;;;;;5.90;1.45;;;;;;;14.80;100.00;102603.84;5036733;28;20057;-93
2022/08/31 06:51:35;;;;;;;6.45;1.55;;;;;;;14.88;100.00;102619.47;5038187;28;20041;-92
2022/08/31 06:54:20;;;;;;;5.43;1.30;;;;;;;15.10;100.00;102649.69;5022819;28;20045;-93
2022/08/31 06:57:04;;;;;;;4.18;1.50;;;;;;;14.98;100.00;102640.31;5047609;28;20053;-93
2022/08/31 06:59:45;;;;;;;4.07;1.23;;;;;;;14.96;100.00;102641.22;5043454;28;20075;-92
2022/08/31 07:02:26;;;;;;;3.22;1.20;;;;;;;14.88;100.00;102640.56;5050664;28;20037;-92
2022/08/31 07:05:08;;;;;;;3.13;1.33;;;;;;;14.93;100.00;102639.56;5023721;28;20026;-92
2022/08/31 07:07:49;;;;;;;6.25;1.40;;;;;;;15.11;100.00;102645.25;5009594;28;20058;-92
2022/08/31 07:10:33;;;;;;;8.23;1.50;;;;;;;14.99;100.00;102642.00;5030571;28;20057;-91
2022/08/31 07:13:14;;;;;;;6.38;1.25;;;;;;;15.00;100.00;102643.75;5032571;28;20056;-91
2022/08/31 07:16:04;;;;;;;3.75;1.40;;;;;;;15.11;100.00;102640.84;5050347;28;20057;-92
2022/08/31 07:18:48;;;;;;;4.07;1.20;;;;;;;14.90;100.00;102615.88;5037559;28;20045;-92
2022/08/31 07:21:46;;;;;;;5.45;1.45;;;;;;;14.96;100.00;102636.84;5028625;28;20139;-93
2022/08/31 07:24:29;;;;;;;3.50;1.33;;;;;;;15.27;100.00;102649.22;5036793;28;20034;-92
2022/08/31 07:27:17;;;;;;;4.72;1.48;;;;;;;15.18;100.00;102650.31;5036772;28;20050;-90
2022/08/31 07:29:59;;;;;;;4.88;1.20;;;;;;;15.18;100.00;102641.56;5027557;28;20117;-91
2022/08/31 07:32:41;;;;;;;7.57;1.70;;;;;;;15.09;100.00;102650.56;5037816;28;20050;-92
2022/08/31 07:35:22;;;;;;;4.72;1.30;;;;;;;15.11;100.00;102638.19;5037877;28;20339;-93
2022/08/31 07:44:10;;;;;;;5.43;1.40;;;;;;;15.20;100.00;102652.91;5038672;28;20042;-93
2022/08/31 07:46:54;;;;;;;6.77;1.40;;;;;;;15.41;100.00;102662.03;5012888;28;20101;-92
2022/08/31 07:49:36;;;;;;;6.72;1.67;;;;;;;15.35;100.00;102678.91;5023302;28;20053;-94
2022/08/31 07:52:22;;;;;;;3.65;1.20;;;;;;;15.35;100.00;102644.59;5038221;28;20097;-94
2022/08/31 07:55:06;;;;;;;3.53;1.27;;;;;;;15.63;100.00;102654.38;5024130;28;20030;-93
2022/08/31 07:57:49;;;;;;;4.97;1.30;;;;;;;15.51;100.00;102601.91;5018849;28;20064;-92
2022/08/31 08:00:34;;;;;;;3.85;1.27;;;;;;;15.89;100.00;102655.44;5051064;28;20026;-92
2022/08/31 08:03:15;;;;;;;4.70;1.38;;;;;;;15.87;100.00;102642.28;5029460;28;20060;-89
2022/08/31 08:05:56;;;;;;;4.10;1.10;;;;;;;15.96;100.00;102664.06;5047591;28;20052;-92
2022/08/31 08:08:39;;;;;;;3.53;1.38;;;;;;;16.00;100.00;102636.63;5055626;28;20056;-91
2022/08/31 08:11:21;;;;;;;3.33;1.10;;;;;;;16.17;100.00;102652.00;5031197;28;20138;-92
2022/08/31 08:14:05;;;;;;;7.53;1.77;;;;;;;16.07;97.21;102683.09;5035757;28;20088;-92
2022/08/31 08:16:46;;;;;;;7.40;1.55;;;;;;;16.18;97.29;102666.91;5041999;28;20052;-91
2022/08/31 08:19:28;;;;;;;4.43;1.25;;;;;;;16.44;93.49;102664.31;5021125;28;20038;-92
2022/08/31 08:22:10;;;;;;;3.20;1.15;;;;;;;16.60;94.62;102674.41;5054629;28;20088;-92
2022/08/31 08:24:50;;;;;;;3.88;1.50;;;;;;;16.26;91.38;102649.06;5036901;28;20064;-92
2022/08/31 08:27:32;;;;;;;4.22;1.15;;;;;;;16.64;94.10;102683.97;5041116;28;20038;-93
2022/08/31 08:30:13;;;;;;;5.13;1.45;;;;;;;16.62;93.37;102657.56;5052900;28;20090;-92
2022/08/31 08:32:54;;;;;;;3.80;1.30;;;;;;;16.56;87.95;102667.50;5036352;28;20029;-92
2022/08/31 08:35:35;;;;;;;6.90;1.30;;;;;;;16.42;88.76;102674.09;5035005;28;20080;-89
2022/08/31 08:38:16;;;;;;;4.80;1.23;;;;;;;16.57;87.41;102661.28;5034257;28;20044;-90
2022/08/31 08:40:59;;;;;;;6.95;1.40;;;;;;;16.65;89.17;102675.13;5049506;28;20034;-91
2022/08/31 08:43:44;;;;;;;4.57;1.48;;;;;;;16.45;83.81;102674.00;5050437;28;20109;-92
2022/08/31 08:46:46;;;;;;;4.53;1.30;;;;;;;16.37;83.49;102669.88;5034808;28;20069;-91
2022/08/31 08:49:27;;;;;;;4.72;1.27;;;;;;;16.77;81.46;102665.91;5024591;28;20038;-93
2022/08/31 08:52:27;;;;;;;3.03;1.00;;;;;;;16.70;79.31;102655.56;5037263;28;20077;-92
2022/08/31 08:55:38;;;;;;;4.65;1.48;;;;;;;16.43;81.50;102667.91;5038402;28;20030;-93
2022/08/31 08:58:20;;;;;;;8.98;2.08;;;;;;;16.45;81.63;102651.97;5049915;28;20119;-93
2022/08/31 09:01:10;;;;;;;3.17;1.08;;;;;;;17.05;81.13;102679.13;5057674;28;20041;-94
2022/08/31 09:04:04;;;;;;;3.08;1.20;;;;;;;17.30;79.71;102679.16;5043902;28;20034;-94
2022/08/31 09:07:17;;;;;;;2.97;1.00;;;;;;;17.01;76.96;102680.16;5057044;28;20093;-93
2022/08/31 09:10:32;;;;;;;3.80;1.10;;;;;;;17.00;76.24;102679.28;5057427;28;20042;-95
2022/08/31 09:13:47;;;;;;;5.00;1.40;;;;;;;16.94;75.49;102650.38;5057996;28;20128;-94
2022/08/31 09:16:52;;;;;;;5.00;1.50;;;;;;;16.82;77.10;102674.56;5030904;28;20092;-94
2022/08/31 09:19:57;;;;;;;3.92;1.20;;;;;;;16.96;78.65;102664.41;5056712;28;20052;-95
2022/08/31 09:22:47;;;;;;;3.33;1.20;;;;;;;17.14;72.48;102673.53;5057595;28;20053;-95
2022/08/31 09:25:34;;;;;;;4.65;1.30;;;;;;;17.30;74.24;102681.81;5056999;28;20021;-94
2022/08/31 09:28:16;;;;;;;8.00;1.67;;;;;;;17.19;75.85;102665.41;5043421;28;20057;-94
2022/08/31 09:30:58;;;;;;;3.97;1.20;;;;;;;17.29;76.69;102677.41;5057036;28;20041;-94
2022/08/31 09:33:49;;;;;;;4.75;1.13;;;;;;;17.08;74.00;102692.25;5056924;28;20045;-94
2022/08/31 09:36:37;;;;;;;3.65;1.30;;;;;;;17.14;74.19;102670.88;5043237;28;20041;-95
2022/08/31 09:39:29;;;;;;;4.90;1.42;;;;;;;16.81;78.61;102678.16;5043404;28;20101;-94
2022/08/31 09:42:19;;;;;;;5.43;1.60;;;;;;;17.03;75.25;102684.50;5056157;28;20032;-95
2022/08/31 09:45:11;;;;;;;3.30;1.00;;;;;;;17.46;74.28;102674.19;5057995;28;20041;-95
2022/08/31 09:47:57;;;;;;;3.60;1.25;;;;;;;17.42;72.28;102681.38;5043618;28;20105;-95
2022/08/31 09:50:43;;;;;;;7.00;1.13;;;;;;;17.38;70.77;102686.81;5056969;28;20041;-94
2022/08/31 09:56:28;;;;;;;2.92;0.93;;;;;;;17.33;70.34;102673.75;5044706;28;20033;-94
2022/08/31 09:59:11;;;;;;;4.47;0.83;;;;;;;17.50;69.00;102675.78;5042180;28;20053;-95
2022/08/31 10:01:54;;;;;;;6.78;1.27;;;;;;;17.53;70.31;102672.16;5057584;28;20032;-94
2022/08/31 10:04:49;;;;;;;4.18;1.00;;;;;;;17.94;68.21;102667.16;5042606;28;20033;-96
2022/08/31 10:07:42;;;;;;;3.42;1.23;;;;;;;18.09;67.89;102666.56;5055915;28;20029;-96
2022/08/31 10:10:29;;;;;;;4.20;1.00;;;;;;;17.97;65.74;102665.25;5056686;28;20076;-95
2022/08/31 10:13:16;;;;;;;3.67;1.20;;;;;;;17.90;65.06;102665.53;5042799;28;20021;-95
2022/08/31 10:16:05;;;;;;;4.20;1.30;;;;;;;17.31;67.39;102638.50;5057545;28;20025;-96
2022/08/31 10:19:11;;;;;;;4.07;1.00;;;;;;;17.74;68.98;102660.81;5042579;28;20048;-95
2022/08/31 10:22:24;;;;;;;3.60;1.02;;;;;;;17.93;67.75;102652.19;5042299;28;20052;-95
2022/08/31 10:25:22;;;;;;;7.68;1.15;;;;;;;18.20;64.96;102658.19;5031879;28;20073;-96
2022/08/31 10:28:16;;;;;;;3.58;0.80;;;;;;;17.88;66.18;102664.72;5056365;28;20025;-95
2022/08/31 10:31:07;;;;;;;3.80;1.00;;;;;;;17.82;66.35;102669.31;5056300;28;20064;-95
2022/08/31 10:37:11;;;;;;;3.30;0.93;;;;;;;17.94;67.06;102665.38;5056674;28;20033;-95
2022/08/31 10:39:57;;;;;;;3.97;1.13;;;;;;;17.80;67.33;102631.41;5041686;28;20033;-94
2022/08/31 10:42:43;;;;;;;5.22;1.30;;;;;;;17.45;67.76;102636.22;5040881;28;20022;-94
2022/08/31 10:45:28;;;;;;;5.70;1.17;;;;;;;17.37;67.77;102669.19;5056687;28;20079;-93
2022/08/31 10:48:11;;;;;;;4.70;1.20;;;;;;;17.54;68.71;102664.16;5055602;28;20068;-93
2022/08/31 10:51:12;;;;;;;2.38;0.98;;;;;;;17.54;67.07;102664.16;5042199;28;20074;-92
2022/08/31 10:54:38;;;;;;;4.50;1.30;;;;;;;17.56;68.72;102658.81;5055367;28;20046;-95
2022/08/31 10:57:28;;;;;;;6.68;1.15;;;;;;;17.88;67.34;102659.44;5055724;28;20033;-95
2022/08/31 11:00:41;;;;;;;4.50;1.35;;;;;;;17.80;68.42;102622.59;5057101;28;20155;-94
2022/08/31 11:03:31;;;;;;;7.55;1.30;;;;;;;17.90;66.75;102652.28;5059669;28;20045;-94
2022/08/31 11:06:40;;;;;;;3.30;1.10;;;;;;;17.92;68.14;102616.00;5059330;28;20060;-95
2022/08/31 11:09:34;;;;;;;4.30;1.13;;;;;;;18.06;67.03;102623.41;5060532;28;20038;-95
2022/08/31 11:12:20;;;;;;;4.50;1.15;;;;;;;18.33;68.34;102637.38;5059398;28;20026;-94
2022/08/31 11:15:46;;;;;;;4.85;1.38;;;;;;;18.43;65.22;102643.16;5031664;28;20100;-96
2022/08/31 11:18:38;;;;;;;4.80;1.10;;;;;;;18.63;66.12;102639.69;5058108;28;20087;-94
2022/08/31 11:21:30;;;;;;;2.63;0.93;;;;;;;18.12;63.27;102644.38;5060282;28;20041;-94
2022/08/31 11:24:27;;;;;;;2.72;0.98;;;;;;;18.06;64.72;102636.66;5059320;28;20029;-95
2022/08/31 11:27:22;;;;;;;6.80;1.30;;;;;;;17.97;64.14;102606.06;5058889;28;20052;-95
2022/08/31 11:30:10;;;;;;;5.03;1.10;;;;;;;18.35;64.18;102599.25;5058969;28;20029;-93
2022/08/31 11:32:58;;;;;;;4.20;1.13;;;;;;;18.32;62.80;102594.06;5058789;28;20036;-95
2022/08/31 11:35:48;;;;;;;2.25;0.98;;;;;;;18.88;64.13;102636.91;5044467;28;20025;-94
2022/08/31 11:39:00;;;;;;;2.25;0.88;;;;;;;18.24;63.74;102628.00;5059574;28;20068;-89
2022/08/31 11:41:45;;;;;;;4.40;1.25;;;;;;;18.25;66.63;102629.72;5048656;28;20052;-93
2022/08/31 11:44:38;;;;;;;2.78;1.00;;;;;;;18.24;64.90;102632.41;5036649;28;20057;-95
2022/08/31 11:47:06;;;;;;;3.83;1.10;;;;;;;18.19;65.97;102600.81;5036523;28;20050;-96
2022/08/31 11:49:45;;;;;;;3.80;1.20;;;;;;;18.49;66.10;102596.03;5036225;28;20054;-95
2022/08/31 11:52:30;;;;;;;5.20;1.58;;;;;;;18.40;65.98;102599.94;5036119;28;20045;-94
2022/08/31 11:55:05;;;;;;;4.78;1.42;;;;;;;18.27;67.19;102587.22;5037255;28;20413;-94
2022/08/31 11:58:08;;;;;;;6.53;1.48;;;;;;;18.49;68.05;102619.06;5036690;28;20080;-94
2022/08/31 12:00:56;;;;;;;4.80;1.20;;;;;;;18.31;68.22;102626.81;5035759;28;20049;-95
2022/08/31 12:03:51;;;;;;;4.28;1.20;;;;;;;17.94;70.17;102592.97;5035981;28;20073;-93
2022/08/31 12:06:26;;;;;;;4.63;1.33;;;;;;;18.24;69.46;102620.03;5035628;28;20510;-93
2022/08/31 12:09:27;;;;;;;6.22;1.23;;;;;;;18.11;71.06;102619.66;5035759;28;20049;-94
2022/08/31 12:12:05;;;;;;;4.20;1.20;;;;;;;18.43;70.01;102619.28;5035503;28;20056;-94
2022/08/31 12:14:50;;;;;;;4.18;1.15;;;;;;;18.50;69.44;102621.66;5035619;28;20462;-93
2022/08/31 12:17:47;;;;;;;3.47;1.15;;;;;;;18.56;68.76;102623.19;5029100;28;20059;-94
2022/08/31 12:23:51;;;;;;;5.70;1.35;;;;;;;18.30;68.04;102614.47;5037156;28;20049;-94
2022/08/31 12:26:32;;;;;;;3.63;1.20;;;;;;;18.18;69.52;102613.19;5031530;28;20054;-94
2022/08/31 12:29:13;;;;;;;5.00;1.50;;;;;;;17.94;72.77;102606.22;5022721;28;20136;-94
2022/08/31 12:31:42;;;;;;;6.45;1.30;;;;;;;18.47;67.57;102589.03;5035391;28;20051;-95